createdAt,value
2019-06-26T00:01:56.338Z,93.70
2019-06-26T00:04:30.767Z,93.00
2019-06-26T00:07:04.414Z,93.30
2019-06-26T00:09:38.742Z,93.50
2019-06-26T00:12:14.666Z,93.70
2019-06-26T00:14:46.901Z,93.40
2019-06-26T00:17:21.665Z,93.30
2019-06-26T00:19:56.393Z,93.70
2019-06-26T00:22:30.917Z,93.90
2019-06-26T00:25:03.301Z,94.10
2019-06-26T00:27:36.960Z,94.30
2019-06-26T00:30:30.199Z,94.40
2019-06-26T00:33:01.899Z,94.60
2019-06-26T00:35:34.790Z,94.80
2019-06-26T00:38:09.418Z,95.00
2019-06-26T00:40:43.844Z,95.10
2019-06-26T00:43:17.258Z,95.10
2019-06-26T00:45:50.850Z,95.30
2019-06-26T00:48:25.632Z,94.90
2019-06-26T00:51:01.897Z,95.00
2019-06-26T00:53:35.946Z,94.80
2019-06-26T00:56:09.771Z,94.60
2019-06-26T00:58:43.774Z,94.60
2019-06-26T01:01:17.510Z,94.60
2019-06-26T01:03:53.598Z,94.20
2019-06-26T01:06:45.409Z,94.10
2019-06-26T01:09:19.859Z,94.20
2019-06-26T01:11:53.554Z,94.10
2019-06-26T01:14:26.638Z,94.10
2019-06-26T01:16:59.871Z,94.20
2019-06-26T01:19:34.563Z,94.40
2019-06-26T01:22:08.217Z,94.40
2019-06-26T01:24:41.863Z,94.20
2019-06-26T01:27:16.223Z,94.10
2019-06-26T01:29:48.868Z,94.10
2019-06-26T01:32:25.536Z,94.10
2019-06-26T01:34:58.939Z,94.30
2019-06-26T01:37:33.051Z,94.50
2019-06-26T01:40:08.199Z,94.30
2019-06-26T01:42:44.060Z,94.20
2019-06-26T01:45:18.001Z,94.10
2019-06-26T01:47:51.086Z,94.40
2019-06-26T01:50:26.333Z,94.60
2019-06-26T01:52:59.886Z,94.40
2019-06-26T01:55:34.828Z,94.70
2019-06-26T01:58:10.013Z,95.10
2019-06-26T02:00:45.294Z,95.50
2019-06-26T02:03:18.078Z,95.60
2019-06-26T02:05:51.859Z,96.10
2019-06-26T02:08:24.515Z,96.30
2019-06-26T02:10:58.464Z,97.10
2019-06-26T02:13:31.660Z,97.20
2019-06-26T02:16:27.914Z,97.80
2019-06-26T02:19:02.606Z,98.10
2019-06-26T02:21:35.718Z,98.00
2019-06-26T02:24:09.755Z,98.40
2019-06-26T02:26:43.122Z,98.50
2019-06-26T02:29:15.845Z,98.60
2019-06-26T02:31:48.238Z,98.70
2019-06-26T02:34:23.495Z,98.70
2019-06-26T02:36:57.094Z,98.80
2019-06-26T02:39:29.651Z,98.80
2019-06-26T02:42:02.224Z,98.80
2019-06-26T02:44:52.300Z,98.90
2019-06-26T02:47:20.218Z,98.90
2019-06-26T02:49:48.963Z,99.00
2019-06-26T02:52:22.932Z,99.00
2019-06-26T02:54:55.545Z,99.00
2019-06-26T02:57:28.285Z,99.00
2019-06-26T03:00:02.143Z,98.90
2019-06-26T03:02:35.199Z,99.30
2019-06-26T03:05:28.907Z,99.00
2019-06-26T03:08:01.935Z,99.00
2019-06-26T03:10:35.013Z,99.10
2019-06-26T03:13:07.575Z,99.10
2019-06-26T03:15:40.686Z,99.20
2019-06-26T03:18:12.950Z,99.30
2019-06-26T03:20:57.654Z,99.40
2019-06-26T03:23:43.961Z,99.60
2019-06-26T03:26:13.446Z,99.70
2019-06-26T03:28:46.756Z,99.90
2019-06-26T03:31:23.856Z,99.90
2019-06-26T03:33:58.997Z,99.90
2019-06-26T03:36:31.981Z,99.90
2019-06-26T03:39:07.718Z,99.90
2019-06-26T03:44:32.287Z,99.90
2019-06-26T03:47:05.644Z,99.90
2019-06-26T03:49:38.447Z,99.90
2019-06-26T03:52:12.759Z,99.90
2019-06-26T03:54:45.921Z,99.90
2019-06-26T03:57:17.803Z,99.90
2019-06-26T03:59:51.180Z,99.90
2019-06-26T04:02:23.307Z,99.90
2019-06-26T04:04:56.195Z,99.90
2019-06-26T04:07:27.957Z,99.90
2019-06-26T04:10:01.455Z,99.90
2019-06-26T04:12:35.021Z,99.90
2019-06-26T04:15:09.008Z,99.90
2019-06-26T04:17:43.690Z,99.90
2019-06-26T04:20:16.051Z,99.90
2019-06-26T04:22:48.262Z,99.90
2019-06-26T04:25:20.496Z,99.90
2019-06-26T04:27:54.764Z,99.90
2019-06-26T04:30:27.043Z,99.90
2019-06-26T04:32:59.614Z,99.90
2019-06-26T04:35:32.313Z,99.70
2019-06-26T04:38:04.391Z,99.20
2019-06-26T04:40:37.866Z,99.50
2019-06-26T04:43:10.599Z,99.70
2019-06-26T04:45:57.266Z,98.60
2019-06-26T04:48:18.655Z,99.10
2019-06-26T04:50:52.693Z,98.60
2019-06-26T04:53:26.208Z,98.10
2019-06-26T04:56:01.962Z,97.90
2019-06-26T04:58:34.847Z,97.60
2019-06-26T05:01:07.470Z,97.40
2019-06-26T05:03:41.217Z,97.10
2019-06-26T05:06:13.847Z,97.20
2019-06-26T05:08:49.218Z,96.70
2019-06-26T05:11:28.589Z,96.50
2019-06-26T05:14:02.596Z,96.60
2019-06-26T05:16:41.972Z,97.00
2019-06-26T05:19:15.604Z,96.20
2019-06-26T05:21:49.545Z,95.90
2019-06-26T05:24:22.318Z,96.80
2019-06-26T05:26:56.188Z,95.80
2019-06-26T05:29:28.452Z,96.60
2019-06-26T05:32:01.138Z,95.00
2019-06-26T05:34:33.655Z,95.50
2019-06-26T05:37:06.245Z,93.90
2019-06-26T05:39:40.255Z,94.40
2019-06-26T05:42:17.028Z,94.50
2019-06-26T05:44:51.350Z,95.20
2019-06-26T05:47:25.633Z,95.70
2019-06-26T05:49:59.165Z,94.50
2019-06-26T05:52:43.585Z,93.90
2019-06-26T05:55:19.296Z,93.60
2019-06-26T05:57:54.996Z,93.30
2019-06-26T06:00:29.274Z,91.90
2019-06-26T06:03:01.734Z,90.90
2019-06-26T06:05:36.443Z,89.90
2019-06-26T06:08:10.895Z,91.20
2019-06-26T06:10:48.278Z,91.20
2019-06-26T06:13:49.266Z,90.40
2019-06-26T06:16:25.864Z,91.70
2019-06-26T06:19:00.853Z,92.50
2019-06-26T06:21:35.895Z,90.60
2019-06-26T06:24:08.286Z,90.30
2019-06-26T06:26:42.621Z,89.30
2019-06-26T06:29:20.258Z,87.70
2019-06-26T06:31:52.679Z,84.50
2019-06-26T06:34:25.325Z,84.40
2019-06-26T06:36:58.854Z,83.40
2019-06-26T06:39:31.399Z,83.00
2019-06-26T06:42:05.369Z,81.40
2019-06-26T06:44:46.532Z,78.70
2019-06-26T06:47:20.725Z,77.60
2019-06-26T06:49:53.175Z,78.30
2019-06-26T06:52:33.276Z,79.10
2019-06-26T06:55:09.480Z,76.10
2019-06-26T06:57:49.984Z,75.50
2019-06-26T07:00:29.022Z,74.60
2019-06-26T07:03:09.188Z,72.40
2019-06-26T07:05:45.758Z,73.30
2019-06-26T07:09:06.299Z,71.00
2019-06-26T07:12:31.831Z,71.50
2019-06-26T07:15:16.685Z,71.30
2019-06-26T07:17:53.770Z,71.70
2019-06-26T07:20:30.194Z,71.20
2019-06-26T07:23:04.434Z,71.70
2019-06-26T07:25:43.327Z,72.70
2019-06-26T07:31:25.350Z,74.00
2019-06-26T07:34:07.113Z,73.30
2019-06-26T07:37:31.899Z,69.50
2019-06-26T07:40:05.420Z,69.10
2019-06-26T07:42:37.471Z,70.10
2019-06-26T07:45:14.992Z,69.90
2019-06-26T07:47:47.095Z,69.70
2019-06-26T07:50:20.573Z,68.00
2019-06-26T07:52:52.813Z,68.20
2019-06-26T07:55:24.771Z,67.20
2019-06-26T07:57:58.373Z,67.50
2019-06-26T08:00:31.679Z,66.20
2019-06-26T08:03:10.208Z,66.00
2019-06-26T08:05:43.229Z,67.50
2019-06-26T08:08:15.143Z,67.30
2019-06-26T08:10:47.119Z,67.00
2019-06-26T08:13:21.333Z,65.60
2019-06-26T08:15:54.297Z,65.00
2019-06-26T08:18:26.302Z,66.10
2019-06-26T08:21:11.458Z,64.70
2019-06-26T08:23:33.910Z,63.90
2019-06-26T08:26:05.925Z,61.70
2019-06-26T08:28:37.926Z,63.70
2019-06-26T08:31:10.264Z,66.10
2019-06-26T08:33:42.414Z,66.20
2019-06-26T08:36:17.221Z,69.10
2019-06-26T08:38:49.604Z,68.70
2019-06-26T08:41:21.746Z,70.50
2019-06-26T08:43:54.149Z,70.80
2019-06-26T08:46:26.042Z,74.50
2019-06-26T08:48:58.329Z,71.00
2019-06-26T08:51:31.406Z,69.90
2019-06-26T08:54:05.446Z,69.70
2019-06-26T08:56:39.711Z,70.60
2019-06-26T08:59:12.140Z,70.10
2019-06-26T09:01:44.968Z,70.10
2019-06-26T09:04:18.260Z,66.90
2019-06-26T09:06:50.519Z,66.30
2019-06-26T09:09:22.751Z,66.30
2019-06-26T09:11:54.815Z,66.10
2019-06-26T09:14:27.766Z,66.20
2019-06-26T09:17:00.559Z,67.00
2019-06-26T09:19:42.336Z,66.20
2019-06-26T09:22:15.820Z,67.40
2019-06-26T09:24:52.500Z,66.70
2019-06-26T09:27:28.081Z,64.30
2019-06-26T09:30:08.207Z,65.00
2019-06-26T09:32:42.737Z,64.20
2019-06-26T09:35:32.805Z,64.30
2019-06-26T09:38:13.981Z,62.20
2019-06-26T09:47:22.377Z,63.80
2019-06-26T09:49:57.525Z,63.60
2019-06-26T09:52:34.196Z,65.10
2019-06-26T09:55:47.293Z,64.60
2019-06-26T10:02:31.883Z,65.50
2019-06-26T10:05:23.475Z,67.00
2019-06-26T10:10:54.159Z,66.50
2019-06-26T10:13:26.503Z,66.90
2019-06-26T10:16:24.469Z,66.50
2019-06-26T10:19:09.515Z,68.30
2019-06-26T10:21:34.742Z,65.80
2019-06-26T10:24:10.036Z,64.60
2019-06-26T10:26:44.652Z,66.20
2019-06-26T10:29:19.553Z,67.90
2019-06-26T10:31:51.832Z,64.70
2019-06-26T10:34:24.133Z,67.50
2019-06-26T10:36:56.635Z,63.70
2019-06-26T10:40:16.143Z,66.10
2019-06-26T10:43:18.624Z,66.00
2019-06-26T10:46:29.585Z,66.20
2019-06-26T10:49:25.944Z,66.60
2019-06-26T10:51:45.090Z,61.40
2019-06-26T10:54:20.383Z,64.40
2019-06-26T10:56:58.301Z,66.10
2019-06-26T10:59:37.742Z,64.60
2019-06-26T11:02:10.984Z,64.40
2019-06-26T11:04:52.524Z,63.90
2019-06-26T11:07:32.196Z,63.00
2019-06-26T11:10:22.892Z,62.80
2019-06-26T11:12:56.200Z,61.90
2019-06-26T11:15:42.253Z,61.00
2019-06-26T11:18:26.353Z,61.50
2019-06-26T11:21:12.787Z,62.30
2019-06-26T11:23:51.584Z,61.90
2019-06-26T11:26:26.632Z,64.20
2019-06-26T11:29:06.140Z,61.20
2019-06-26T11:32:03.739Z,62.90
2019-06-26T11:34:53.379Z,62.60
2019-06-26T11:37:38.757Z,60.80
2019-06-26T11:40:29.820Z,61.10
2019-06-26T11:43:09.030Z,61.40
2019-06-26T11:45:58.852Z,63.80
2019-06-26T11:48:52.145Z,64.50
2019-06-26T11:51:42.880Z,61.40
2019-06-26T11:54:42.819Z,63.90
2019-06-26T11:57:24.337Z,64.50
2019-06-26T12:00:14.829Z,63.70
2019-06-26T12:03:02.829Z,63.50
2019-06-26T12:05:43.078Z,63.30
2019-06-26T12:08:26.660Z,62.50
2019-06-26T12:11:04.087Z,63.90
2019-06-26T12:13:37.488Z,65.80
2019-06-26T12:16:13.595Z,65.40
2019-06-26T12:18:50.684Z,64.10
2019-06-26T12:21:24.284Z,67.60
2019-06-26T12:23:57.476Z,67.90
2019-06-26T12:26:33.521Z,66.60
2019-06-26T12:29:06.460Z,65.50
2019-06-26T12:31:47.334Z,64.90
2019-06-26T12:34:21.038Z,64.70
2019-06-26T12:37:06.413Z,65.00
2019-06-26T12:39:42.538Z,66.00
2019-06-26T12:42:18.832Z,66.70
2019-06-26T12:44:53.876Z,67.40
2019-06-26T12:47:31.499Z,65.70
2019-06-26T12:50:08.635Z,67.20
2019-06-26T12:52:50.489Z,67.80
2019-06-26T12:55:23.794Z,66.80
2019-06-26T12:58:11.586Z,67.90
2019-06-26T13:00:30.861Z,66.20
2019-06-26T13:03:10.461Z,67.90
2019-06-26T13:05:50.285Z,65.00
2019-06-26T13:08:54.118Z,65.10
2019-06-26T13:11:48.778Z,65.80
2019-06-26T13:14:25.344Z,65.10
2019-06-26T13:17:10.962Z,66.20
2019-06-26T13:19:57.068Z,66.20
2019-06-26T13:22:36.903Z,66.90
2019-06-26T13:25:10.858Z,65.70
2019-06-26T13:28:01.597Z,65.20
2019-06-26T13:30:45.343Z,66.60
2019-06-26T13:33:21.769Z,67.60
2019-06-26T13:35:57.402Z,68.00
2019-06-26T13:38:32.494Z,69.50
2019-06-26T13:41:05.867Z,67.50
2019-06-26T13:43:41.229Z,68.00
2019-06-26T13:46:15.274Z,66.70
2019-06-26T13:48:52.542Z,68.40
2019-06-26T13:51:30.480Z,69.30
2019-06-26T13:54:07.436Z,70.80
2019-06-26T13:57:03.180Z,67.90
2019-06-26T13:59:41.240Z,69.40
2019-06-26T14:02:23.383Z,71.20
2019-06-26T14:04:56.304Z,67.90
2019-06-26T14:10:49.563Z,68.70
2019-06-26T14:16:40.223Z,67.60
2019-06-26T14:19:17.126Z,68.10
2019-06-26T14:22:05.238Z,68.20
2019-06-26T14:24:40.699Z,67.70
2019-06-26T14:27:15.305Z,67.20
2019-06-26T14:29:51.387Z,67.90
2019-06-26T14:32:26.943Z,67.30
2019-06-26T14:35:10.653Z,67.30
2019-06-26T14:37:58.004Z,68.10
2019-06-26T14:40:32.259Z,67.50
2019-06-26T14:43:12.255Z,68.40
2019-06-26T14:46:03.427Z,69.00
2019-06-26T14:48:36.998Z,67.60
2019-06-26T14:51:13.280Z,65.90
2019-06-26T14:53:45.794Z,67.00
2019-06-26T14:56:32.299Z,67.70
2019-06-26T14:59:11.464Z,67.70
2019-06-26T15:01:45.457Z,68.40
2019-06-26T15:04:19.942Z,68.00
2019-06-26T15:07:02.453Z,65.90
2019-06-26T15:09:40.670Z,65.10
2019-06-26T15:12:24.823Z,65.70
2019-06-26T15:15:01.052Z,66.60
2019-06-26T15:17:34.486Z,65.00
2019-06-26T15:20:11.731Z,66.10
2019-06-26T15:23:16.414Z,65.60
2019-06-26T15:26:26.658Z,66.30
2019-06-26T15:29:06.843Z,65.60
2019-06-26T15:31:41.305Z,67.30
2019-06-26T15:34:14.486Z,67.30
2019-06-26T15:36:54.762Z,65.90
2019-06-26T15:39:28.347Z,66.30
2019-06-26T15:42:36.528Z,69.50
2019-06-26T15:45:14.117Z,67.80
2019-06-26T15:47:48.878Z,70.90
2019-06-26T15:50:35.317Z,68.80
2019-06-26T15:53:29.949Z,72.30
2019-06-26T15:56:37.528Z,71.80
2019-06-26T15:59:24.372Z,73.40
2019-06-26T16:02:02.256Z,71.60
2019-06-26T16:04:46.918Z,71.60
2019-06-26T16:07:21.078Z,72.20
2019-06-26T16:09:54.909Z,73.30
2019-06-26T16:12:29.671Z,72.20
2019-06-26T16:15:08.958Z,72.30
2019-06-26T16:17:44.976Z,73.00
2019-06-26T16:20:20.486Z,74.00
2019-06-26T16:22:53.924Z,73.70
2019-06-26T16:25:28.767Z,72.40
2019-06-26T16:28:10.671Z,72.50
2019-06-26T16:30:46.157Z,71.90
2019-06-26T16:33:23.218Z,71.70
2019-06-26T16:36:00.257Z,72.30
2019-06-26T16:38:54.160Z,72.60
2019-06-26T16:44:25.844Z,72.10
2019-06-26T16:50:07.024Z,73.60
2019-06-26T16:52:49.362Z,73.40
2019-06-26T16:55:16.098Z,72.90
2019-06-26T17:00:36.335Z,72.90
2019-06-26T17:03:09.509Z,72.90
2019-06-26T17:05:43.811Z,73.40
2019-06-26T17:11:23.790Z,72.90
2019-06-26T17:14:03.315Z,72.80
2019-06-26T17:16:47.566Z,73.30
2019-06-26T17:19:22.620Z,73.30
2019-06-26T17:22:03.741Z,73.30
2019-06-26T17:24:38.112Z,73.60
2019-06-26T17:27:13.044Z,74.20
2019-06-26T17:29:45.711Z,74.30
2019-06-26T17:32:18.432Z,74.90
2019-06-26T17:34:52.367Z,75.40
2019-06-26T17:40:29.158Z,75.30
2019-06-26T17:43:12.435Z,75.40
2019-06-26T17:45:42.290Z,76.20
2019-06-26T17:48:15.769Z,75.50
2019-06-26T17:50:50.891Z,76.00
2019-06-26T17:53:24.659Z,75.80
2019-06-26T17:55:57.031Z,76.20
2019-06-26T17:58:31.236Z,77.00
2019-06-26T18:01:03.603Z,77.40
2019-06-26T18:03:36.822Z,78.20
2019-06-26T18:06:09.744Z,78.40
2019-06-26T18:08:45.032Z,79.00
2019-06-26T18:11:20.796Z,78.90
2019-06-26T18:13:53.831Z,79.80
2019-06-26T18:16:46.980Z,80.00
2019-06-26T18:19:38.082Z,80.60
2019-06-26T18:22:12.811Z,80.80
2019-06-26T18:24:47.951Z,80.40
2019-06-26T18:27:21.156Z,80.90
2019-06-26T18:29:55.135Z,80.60
2019-06-26T18:32:31.932Z,80.80
2019-06-26T18:35:07.427Z,81.20
2019-06-26T18:37:50.684Z,81.10
2019-06-26T18:40:25.698Z,81.60
2019-06-26T18:43:02.317Z,81.20
2019-06-26T18:45:36.200Z,82.30
2019-06-26T18:48:09.894Z,81.60
2019-06-26T18:50:43.829Z,81.90
2019-06-26T18:53:21.362Z,82.00
2019-06-26T18:55:55.933Z,82.40
2019-06-26T18:58:32.998Z,82.30
2019-06-26T19:01:07.727Z,82.70
2019-06-26T19:03:45.057Z,82.40
2019-06-26T19:06:18.065Z,81.70
2019-06-26T19:08:53.981Z,81.40
2019-06-26T19:11:29.841Z,81.20
2019-06-26T19:14:08.955Z,81.30
2019-06-26T19:16:50.590Z,81.30
2019-06-26T19:19:25.460Z,81.60
2019-06-26T19:22:23.377Z,81.90
2019-06-26T19:24:58.279Z,82.20
2019-06-26T19:27:39.629Z,82.30
2019-06-26T19:30:14.239Z,82.50
2019-06-26T19:32:52.628Z,82.90
2019-06-26T19:35:30.264Z,83.10
2019-06-26T19:38:03.548Z,83.50
2019-06-26T19:40:48.513Z,83.80
2019-06-26T19:43:24.695Z,84.40
2019-06-26T19:46:21.500Z,84.90
2019-06-26T19:48:57.507Z,85.70
2019-06-26T19:51:32.723Z,86.30
2019-06-26T19:54:08.780Z,86.80
2019-06-26T19:56:44.948Z,87.00
2019-06-26T19:59:19.086Z,87.20
2019-06-26T20:01:52.991Z,87.70
2019-06-26T20:04:29.118Z,87.50
2019-06-26T20:07:04.062Z,87.60
2019-06-26T20:10:06.058Z,87.50
2019-06-26T20:12:44.506Z,87.30
2019-06-26T20:15:20.352Z,87.10
2019-06-26T20:17:59.462Z,87.20
2019-06-26T20:20:33.745Z,87.10
2019-06-26T20:23:08.630Z,87.40
2019-06-26T20:25:42.853Z,87.20
2019-06-26T20:28:18.104Z,87.50
2019-06-26T20:30:51.945Z,87.40
2019-06-26T20:33:25.134Z,87.60
2019-06-26T20:35:59.898Z,88.10
2019-06-26T20:38:34.424Z,88.30
2019-06-26T20:41:08.295Z,89.10
2019-06-26T20:43:43.690Z,89.60
2019-06-26T20:46:23.614Z,89.00
2019-06-26T20:48:57.464Z,89.40
2019-06-26T20:51:33.107Z,89.60
2019-06-26T20:54:07.247Z,89.80
2019-06-26T20:57:02.278Z,90.00
2019-06-26T20:59:36.731Z,90.00
2019-06-26T21:02:10.184Z,90.10
2019-06-26T21:04:42.399Z,90.30
2019-06-26T21:07:15.950Z,90.70
2019-06-26T21:09:51.468Z,91.40
2019-06-26T21:12:24.692Z,91.30
2019-06-26T21:14:58.417Z,91.20
2019-06-26T21:17:32.580Z,91.40
2019-06-26T21:20:08.008Z,91.40
2019-06-26T21:22:42.298Z,91.50
2019-06-26T21:25:18.941Z,91.60
2019-06-26T21:27:52.637Z,91.60
2019-06-26T21:30:25.534Z,91.50
2019-06-26T21:32:58.124Z,91.60
2019-06-26T21:35:32.103Z,91.60
2019-06-26T21:38:04.814Z,91.40
2019-06-26T21:40:37.140Z,91.30
2019-06-26T21:43:12.594Z,91.20
2019-06-26T21:45:45.929Z,91.20
2019-06-26T21:48:21.739Z,91.30
2019-06-26T21:50:57.602Z,91.00
2019-06-26T21:53:29.828Z,91.00
2019-06-26T21:56:21.905Z,91.20
2019-06-26T21:59:14.857Z,91.20
2019-06-26T22:02:06.375Z,91.30
2019-06-26T22:04:54.358Z,91.40
2019-06-26T22:07:29.889Z,91.20
2019-06-26T22:10:10.280Z,91.20
2019-06-26T22:12:45.946Z,91.40
2019-06-26T22:15:19.871Z,91.40
2019-06-26T22:17:53.586Z,91.30
2019-06-26T22:20:26.788Z,91.20
2019-06-26T22:22:59.493Z,91.20
2019-06-26T22:25:46.660Z,90.80
2019-06-26T22:28:09.675Z,91.40
2019-06-26T22:30:44.388Z,91.50
2019-06-26T22:33:16.731Z,91.60
2019-06-26T22:35:49.917Z,91.70
2019-06-26T22:38:24.023Z,91.90
2019-06-26T22:40:57.163Z,92.00
2019-06-26T22:43:32.030Z,92.30
2019-06-26T22:46:05.424Z,92.40
2019-06-26T22:48:39.797Z,92.60
2019-06-26T22:51:13.205Z,93.00
2019-06-26T22:53:48.229Z,93.20
2019-06-26T22:56:21.537Z,93.40
2019-06-26T22:58:55.378Z,93.20
2019-06-26T23:01:28.315Z,93.20
2019-06-26T23:04:01.891Z,93.20
2019-06-26T23:06:37.414Z,93.30
2019-06-26T23:09:11.689Z,93.20
2019-06-26T23:11:44.216Z,93.00
2019-06-26T23:14:25.723Z,93.20
2019-06-26T23:17:00.499Z,93.20
2019-06-26T23:19:33.030Z,93.40
2019-06-26T23:22:05.664Z,93.80
2019-06-26T23:24:38.331Z,94.00
2019-06-26T23:27:11.871Z,94.20
2019-06-26T23:29:44.787Z,94.40
2019-06-26T23:32:19.166Z,94.60
2019-06-26T23:34:51.598Z,94.50
2019-06-26T23:37:25.442Z,94.00
2019-06-26T23:39:58.160Z,94.20
2019-06-26T23:42:30.393Z,94.10
2019-06-26T23:45:05.786Z,93.90
2019-06-26T23:47:39.950Z,93.50
2019-06-26T23:50:12.557Z,93.00
2019-06-26T23:52:45.925Z,92.80
2019-06-26T23:55:20.153Z,93.20
2019-06-26T23:57:59.011Z,92.80
